createdAt,value
2023-03-14T00:00:19.000Z,11.72
2023-03-14T00:03:22.809Z,11.68
2023-03-14T00:06:27.806Z,11.65
2023-03-14T00:09:31.891Z,11.68
2023-03-14T00:12:36.312Z,11.69
2023-03-14T00:15:40.517Z,11.67
2023-03-14T00:18:44.619Z,11.53
2023-03-14T00:21:48.931Z,11.48
2023-03-14T00:24:53.145Z,11.47
2023-03-14T00:27:57.243Z,11.42
2023-03-14T00:31:05.069Z,11.36
2023-03-14T00:34:09.171Z,11.39
2023-03-14T00:37:13.154Z,11.40
2023-03-14T00:40:17.267Z,11.32
2023-03-14T00:43:25.113Z,11.27
2023-03-14T00:46:29.053Z,11.26
2023-03-14T00:49:33.312Z,11.30
2023-03-14T00:52:37.663Z,11.32
2023-03-14T00:55:43.738Z,11.31
2023-03-14T00:58:48.041Z,11.20
2023-03-14T01:01:52.171Z,11.15
2023-03-14T01:04:56.260Z,11.15
2023-03-14T01:08:00.569Z,11.15
2023-03-14T01:11:29.091Z,11.17
2023-03-14T01:14:33.284Z,11.22
2023-03-14T01:17:38.962Z,11.25
2023-03-14T01:20:43.351Z,11.22
2023-03-14T01:23:48.425Z,11.31
2023-03-14T01:26:52.187Z,11.33
2023-03-14T01:29:56.335Z,11.35
2023-03-14T01:33:00.246Z,11.41
2023-03-14T01:36:04.929Z,11.42
2023-03-14T01:39:09.781Z,11.43
2023-03-14T01:42:14.091Z,11.52
2023-03-14T01:45:55.951Z,11.53
2023-03-14T01:49:25.827Z,11.44
2023-03-14T01:52:36.137Z,11.46
2023-03-14T01:55:40.471Z,11.54
2023-03-14T01:58:48.355Z,11.49
2023-03-14T02:01:52.917Z,11.46
2023-03-14T02:04:58.395Z,11.46
2023-03-14T02:08:05.964Z,11.35
2023-03-14T02:11:10.183Z,11.36
2023-03-14T02:14:25.966Z,11.34
2023-03-14T02:17:29.986Z,11.29
2023-03-14T02:21:18.312Z,11.26
2023-03-14T02:24:38.229Z,11.28
2023-03-14T02:27:42.612Z,11.23
2023-03-14T02:30:47.416Z,11.24
2023-03-14T02:33:52.184Z,11.18
2023-03-14T02:36:56.626Z,11.22
2023-03-14T02:40:05.363Z,11.15
2023-03-14T02:43:10.360Z,11.17
2023-03-14T02:46:17.796Z,11.23
2023-03-14T02:49:22.624Z,11.16
2023-03-14T02:52:26.533Z,11.12
2023-03-14T02:55:30.678Z,11.11
2023-03-14T02:58:36.459Z,11.09
2023-03-14T03:01:40.375Z,11.13
2023-03-14T03:04:44.520Z,11.13
2023-03-14T03:07:48.468Z,11.02
2023-03-14T03:10:53.028Z,11.08
2023-03-14T03:13:56.992Z,11.04
2023-03-14T03:17:00.827Z,11.13
2023-03-14T03:20:06.004Z,11.23
2023-03-14T03:23:10.286Z,11.29
2023-03-14T03:26:14.372Z,11.34
2023-03-14T03:29:18.448Z,11.39
2023-03-14T03:32:22.549Z,11.40
2023-03-14T03:35:26.433Z,11.41
2023-03-14T03:38:30.796Z,11.40
2023-03-14T03:41:34.957Z,11.47
2023-03-14T03:44:39.377Z,11.47
2023-03-14T03:47:43.398Z,11.47
2023-03-14T03:50:48.153Z,11.47
2023-03-14T03:53:52.682Z,11.46
2023-03-14T03:56:56.928Z,11.39
2023-03-14T04:00:01.201Z,11.35
2023-03-14T04:03:05.608Z,11.27
2023-03-14T04:06:12.984Z,11.17
2023-03-14T04:09:17.083Z,11.12
2023-03-14T04:12:21.268Z,11.17
2023-03-14T04:15:25.383Z,11.19
2023-03-14T04:18:31.243Z,11.15
2023-03-14T04:21:35.345Z,11.14
2023-03-14T04:24:39.428Z,11.14
2023-03-14T04:27:43.377Z,11.15
2023-03-14T04:30:47.175Z,11.23
2023-03-14T04:33:51.016Z,11.19
2023-03-14T04:36:54.698Z,11.20
2023-03-14T04:39:58.657Z,11.20
2023-03-14T04:43:02.750Z,11.23
2023-03-14T04:46:07.496Z,11.21
2023-03-14T04:49:11.297Z,11.24
2023-03-14T04:52:15.357Z,11.41
2023-03-14T04:55:19.592Z,11.35
2023-03-14T04:58:24.893Z,11.38
2023-03-14T05:01:29.056Z,11.38
2023-03-14T05:04:34.626Z,11.42
2023-03-14T05:07:38.405Z,11.27
2023-03-14T05:10:42.508Z,11.25
2023-03-14T05:13:46.802Z,11.16
2023-03-14T05:16:50.634Z,11.10
2023-03-14T05:19:54.464Z,11.02
2023-03-14T05:22:58.688Z,10.98
2023-03-14T05:26:02.914Z,10.90
2023-03-14T05:29:07.136Z,10.87
2023-03-14T05:32:11.217Z,10.86
2023-03-14T05:35:15.060Z,10.89
2023-03-14T05:38:19.853Z,10.91
2023-03-14T05:41:24.346Z,10.97
2023-03-14T05:44:28.371Z,10.96
2023-03-14T05:47:32.284Z,10.93
2023-03-14T05:50:36.474Z,10.98
2023-03-14T05:53:40.429Z,10.95
2023-03-14T05:56:44.723Z,10.98
2023-03-14T05:59:48.866Z,11.05
2023-03-14T06:02:52.978Z,11.16
2023-03-14T06:05:57.041Z,11.15
2023-03-14T06:09:01.027Z,11.18
2023-03-14T06:12:05.429Z,11.31
2023-03-14T06:15:10.195Z,11.32
2023-03-14T06:18:15.094Z,11.34
2023-03-14T06:21:20.431Z,11.33
2023-03-14T06:24:24.375Z,11.44
2023-03-14T06:27:28.594Z,11.53
2023-03-14T06:30:32.694Z,11.48
2023-03-14T06:33:36.652Z,11.38
2023-03-14T06:36:40.733Z,11.36
2023-03-14T06:39:45.332Z,11.53
2023-03-14T06:42:49.565Z,11.46
2023-03-14T06:45:53.929Z,11.42
2023-03-14T06:48:58.083Z,11.53
2023-03-14T06:52:02.334Z,11.55
2023-03-14T06:55:07.221Z,11.59
2023-03-14T06:58:11.521Z,11.64
2023-03-14T07:01:23.682Z,11.69
2023-03-14T07:04:27.991Z,11.74
2023-03-14T07:07:32.324Z,11.69
2023-03-14T07:10:36.677Z,11.69
2023-03-14T07:13:41.131Z,11.67
2023-03-14T07:16:46.080Z,11.79
2023-03-14T07:19:49.948Z,11.83
2023-03-14T07:22:53.882Z,11.92
2023-03-14T07:25:58.042Z,12.02
2023-03-14T07:29:04.132Z,12.01
2023-03-14T07:32:08.927Z,12.07
2023-03-14T07:35:13.175Z,12.13
2023-03-14T07:38:18.130Z,12.25
2023-03-14T07:41:23.900Z,12.39
2023-03-14T07:44:28.008Z,12.48
2023-03-14T07:47:32.077Z,12.59
2023-03-14T07:50:36.199Z,12.74
2023-03-14T07:53:40.463Z,12.77
2023-03-14T07:56:44.492Z,13.05
2023-03-14T07:59:48.458Z,13.14
2023-03-14T08:02:52.413Z,13.10
2023-03-14T08:05:56.775Z,13.07
2023-03-14T08:09:00.831Z,13.00
2023-03-14T08:12:05.228Z,12.92
2023-03-14T08:15:09.273Z,12.87
2023-03-14T08:18:13.037Z,13.24
2023-03-14T08:21:17.318Z,13.73
2023-03-14T08:24:21.200Z,13.62
2023-03-14T08:27:25.119Z,13.51
2023-03-14T08:30:29.098Z,13.53
2023-03-14T08:33:33.282Z,13.90
2023-03-14T08:36:37.407Z,13.99
2023-03-14T08:39:41.612Z,13.90
2023-03-14T08:42:46.566Z,13.96
2023-03-14T08:45:50.468Z,14.08
2023-03-14T08:48:54.695Z,14.02
2023-03-14T08:51:59.695Z,14.17
2023-03-14T08:55:04.119Z,14.30
2023-03-14T08:58:08.099Z,14.26
2023-03-14T09:01:12.855Z,14.18
2023-03-14T09:04:17.781Z,14.19
2023-03-14T09:07:22.166Z,14.11
2023-03-14T09:10:26.404Z,14.13
2023-03-14T09:13:30.661Z,14.15
2023-03-14T09:16:35.003Z,14.24
2023-03-14T09:19:39.407Z,14.19
2023-03-14T09:22:43.396Z,14.26
2023-03-14T09:25:47.794Z,14.34
2023-03-14T09:28:51.845Z,14.30
2023-03-14T09:31:58.089Z,14.21
2023-03-14T09:35:02.366Z,14.11
2023-03-14T09:38:06.770Z,14.09
2023-03-14T09:41:16.922Z,14.06
2023-03-14T09:44:49.058Z,14.11
2023-03-14T09:47:59.481Z,14.03
2023-03-14T09:51:15.000Z,14.12
2023-03-14T09:54:33.616Z,14.21
2023-03-14T09:57:38.264Z,14.15
2023-03-14T10:00:42.385Z,14.08
2023-03-14T10:03:47.349Z,14.10
2023-03-14T10:06:51.409Z,14.07
2023-03-14T10:09:55.892Z,14.13
2023-03-14T10:13:12.049Z,14.12
2023-03-14T10:16:15.836Z,13.93
2023-03-14T10:19:19.929Z,13.95
2023-03-14T10:22:27.057Z,13.88
2023-03-14T10:25:36.969Z,13.75
2023-03-14T10:28:52.230Z,13.79
2023-03-14T10:32:02.959Z,13.82
2023-03-14T10:35:20.436Z,13.91
2023-03-14T10:38:36.265Z,14.16
2023-03-14T10:41:40.714Z,14.23
2023-03-14T10:44:45.300Z,14.43
2023-03-14T10:47:51.656Z,14.33
2023-03-14T10:51:20.625Z,14.28
2023-03-14T10:54:24.912Z,14.14
2023-03-14T10:57:29.324Z,14.06
2023-03-14T11:00:34.219Z,14.09
2023-03-14T11:03:43.654Z,14.02
2023-03-14T11:06:53.697Z,13.96
2023-03-14T11:10:09.634Z,13.92
2023-03-14T11:13:21.845Z,13.90
2023-03-14T11:16:40.338Z,14.01
2023-03-14T11:20:25.909Z,13.94
2023-03-14T11:24:05.454Z,14.13
2023-03-14T11:27:35.750Z,14.18
2023-03-14T11:30:48.895Z,14.26
2023-03-14T11:34:16.371Z,14.40
2023-03-14T11:37:34.695Z,14.49
2023-03-14T11:40:40.065Z,14.49
2023-03-14T11:43:49.282Z,14.43
2023-03-14T11:47:00.581Z,14.45
2023-03-14T11:50:16.662Z,14.61
2023-03-14T11:53:44.481Z,14.72
2023-03-14T11:57:03.598Z,14.84
2023-03-14T12:00:28.431Z,14.85
2023-03-14T12:03:56.804Z,14.95
2023-03-14T12:07:06.527Z,14.84
2023-03-14T12:10:11.367Z,14.79
2023-03-14T12:13:16.955Z,14.61
2023-03-14T12:16:23.889Z,14.52
2023-03-14T12:19:31.641Z,14.43
2023-03-14T12:22:42.388Z,14.38
2023-03-14T12:25:46.409Z,14.26
2023-03-14T12:29:15.717Z,14.08
2023-03-14T12:32:26.744Z,13.90
2023-03-14T12:35:40.003Z,13.94
2023-03-14T12:38:57.992Z,13.97
2023-03-14T12:42:27.443Z,14.09
2023-03-14T12:45:36.065Z,14.07
2023-03-14T12:48:41.197Z,14.17
2023-03-14T12:51:45.239Z,14.13
2023-03-14T12:54:59.838Z,14.27
2023-03-14T12:58:13.350Z,14.22
2023-03-14T13:01:20.306Z,14.18
2023-03-14T13:04:43.899Z,14.14
2023-03-14T13:07:48.265Z,14.25
2023-03-14T13:10:52.414Z,14.32
2023-03-14T13:14:00.212Z,14.33
2023-03-14T13:17:25.151Z,14.45
2023-03-14T13:20:31.642Z,14.56
2023-03-14T13:23:38.415Z,14.67
2023-03-14T13:26:44.233Z,14.70
2023-03-14T13:29:51.942Z,14.80
2023-03-14T13:32:56.761Z,14.76
2023-03-14T13:36:04.669Z,14.96
2023-03-14T13:39:15.044Z,14.92
2023-03-14T13:42:19.858Z,15.05
2023-03-14T13:45:24.004Z,14.91
2023-03-14T13:48:30.618Z,14.88
2023-03-14T13:51:34.902Z,14.88
2023-03-14T13:54:42.272Z,14.85
2023-03-14T13:57:55.518Z,14.76
2023-03-14T14:01:01.824Z,14.98
2023-03-14T14:04:15.199Z,15.09
2023-03-14T14:07:19.456Z,14.96
2023-03-14T14:10:24.152Z,15.02
2023-03-14T14:13:30.912Z,14.88
2023-03-14T14:16:35.079Z,14.68
2023-03-14T14:19:41.546Z,14.57
2023-03-14T14:22:46.758Z,14.51
2023-03-14T14:25:50.927Z,14.51
2023-03-14T14:29:05.003Z,14.64
2023-03-14T14:32:08.972Z,14.65
2023-03-14T14:35:31.307Z,14.59
2023-03-14T14:38:35.260Z,14.54
2023-03-14T14:41:42.247Z,14.54
2023-03-14T14:44:46.644Z,14.41
2023-03-14T14:47:52.942Z,14.43
2023-03-14T14:51:01.586Z,14.46
2023-03-14T14:54:12.104Z,14.41
2023-03-14T14:57:20.909Z,14.35
2023-03-14T15:00:27.760Z,14.11
2023-03-14T15:03:34.443Z,13.67
2023-03-14T15:06:38.424Z,13.27
2023-03-14T15:09:44.017Z,13.03
2023-03-14T15:12:48.626Z,12.89
2023-03-14T15:15:59.406Z,11.92
2023-03-14T15:19:24.899Z,10.86
2023-03-14T15:22:29.080Z,9.60
2023-03-14T15:25:53.341Z,8.84
2023-03-14T15:28:57.488Z,8.45
2023-03-14T15:32:01.877Z,8.17
2023-03-14T15:35:08.411Z,8.14
2023-03-14T15:38:14.653Z,8.05
2023-03-14T15:41:21.998Z,7.84
2023-03-14T15:44:26.027Z,7.82
2023-03-14T15:47:33.044Z,7.60
2023-03-14T15:50:36.972Z,7.48
2023-03-14T15:53:41.785Z,7.34
2023-03-14T15:56:45.661Z,7.16
2023-03-14T15:59:49.953Z,6.96
2023-03-14T16:02:54.147Z,6.86
2023-03-14T16:05:58.560Z,6.89
2023-03-14T16:09:02.781Z,6.80
2023-03-14T16:12:08.763Z,6.76
2023-03-14T16:15:12.738Z,6.71
2023-03-14T16:18:22.054Z,6.56
2023-03-14T16:21:26.918Z,6.42
2023-03-14T16:24:31.017Z,6.45
2023-03-14T16:27:35.100Z,6.33
2023-03-14T16:30:39.302Z,6.25
2023-03-14T16:33:43.799Z,6.36
2023-03-14T16:36:48.109Z,6.30
2023-03-14T16:40:11.035Z,6.20
2023-03-14T16:43:16.521Z,6.03
2023-03-14T16:46:22.603Z,5.91
2023-03-14T16:49:26.981Z,5.88
2023-03-14T16:52:31.354Z,5.69
2023-03-14T16:55:35.507Z,5.67
2023-03-14T16:58:40.341Z,5.58
2023-03-14T17:01:44.946Z,5.58
2023-03-14T17:04:48.964Z,5.60
2023-03-14T17:07:53.309Z,5.60
2023-03-14T17:10:57.607Z,5.51
2023-03-14T17:14:02.457Z,5.52
2023-03-14T17:17:06.978Z,5.64
2023-03-14T17:20:11.866Z,5.65
2023-03-14T17:23:16.848Z,5.58
2023-03-14T17:26:20.998Z,5.53
2023-03-14T17:29:25.512Z,5.57
2023-03-14T17:32:29.698Z,5.66
2023-03-14T17:35:34.045Z,5.58
2023-03-14T17:38:38.082Z,5.54
2023-03-14T17:41:42.328Z,5.57
2023-03-14T17:44:46.740Z,5.62
2023-03-14T17:47:50.842Z,5.58
2023-03-14T17:50:57.991Z,5.59
2023-03-14T17:54:02.761Z,5.65
2023-03-14T17:57:07.202Z,5.66
2023-03-14T18:00:13.080Z,5.67
2023-03-14T18:03:17.348Z,5.64
2023-03-14T18:06:23.549Z,5.66
2023-03-14T18:09:27.736Z,5.61
2023-03-14T18:12:32.163Z,5.67
2023-03-14T18:15:36.133Z,5.67
2023-03-14T18:18:42.038Z,5.74
2023-03-14T18:21:47.434Z,5.81
2023-03-14T18:24:51.776Z,5.72
2023-03-14T18:27:55.838Z,5.78
2023-03-14T18:31:11.766Z,5.72
2023-03-14T18:34:16.877Z,5.65
2023-03-14T18:37:21.137Z,5.57
2023-03-14T18:40:25.459Z,5.52
2023-03-14T18:43:29.461Z,5.47
2023-03-14T18:46:33.919Z,5.32
2023-03-14T18:49:38.328Z,5.32
2023-03-14T18:52:42.354Z,5.25
2023-03-14T18:55:46.433Z,5.17
2023-03-14T18:58:50.791Z,5.24
2023-03-14T19:01:54.997Z,5.11
2023-03-14T19:04:58.958Z,5.12
2023-03-14T19:08:03.070Z,5.14
2023-03-14T19:11:08.916Z,5.15
2023-03-14T19:14:15.883Z,5.08
2023-03-14T19:17:19.793Z,5.16
2023-03-14T19:20:24.505Z,5.19
2023-03-14T19:23:28.997Z,5.25
2023-03-14T19:26:35.140Z,5.15
2023-03-14T19:29:42.152Z,5.16
2023-03-14T19:32:46.665Z,5.16
2023-03-14T19:35:50.887Z,5.11
2023-03-14T19:38:55.506Z,5.08
2023-03-14T19:41:59.616Z,5.04
2023-03-14T19:45:04.920Z,5.03
2023-03-14T19:48:11.252Z,4.93
2023-03-14T19:51:16.296Z,5.00
2023-03-14T19:54:20.994Z,4.99
2023-03-14T19:57:24.955Z,4.87
2023-03-14T20:00:29.524Z,4.84
2023-03-14T20:03:36.647Z,4.91
2023-03-14T20:06:44.503Z,4.86
2023-03-14T20:09:48.409Z,4.91
2023-03-14T20:12:52.600Z,4.95
2023-03-14T20:15:56.835Z,4.89
2023-03-14T20:19:01.466Z,4.86
2023-03-14T20:22:05.605Z,4.87
2023-03-14T20:25:18.572Z,4.81
2023-03-14T20:28:23.340Z,4.81
2023-03-14T20:31:27.613Z,4.77
2023-03-14T20:34:34.140Z,4.70
2023-03-14T20:37:38.763Z,4.70
2023-03-14T20:40:45.899Z,4.72
2023-03-14T20:43:50.288Z,4.67
2023-03-14T20:46:56.130Z,4.59
2023-03-14T20:50:01.626Z,4.65
2023-03-14T20:53:05.990Z,4.60
2023-03-14T20:56:10.298Z,4.61
2023-03-14T20:59:14.375Z,4.52
2023-03-14T21:02:18.632Z,4.50
2023-03-14T21:05:23.843Z,4.50
2023-03-14T21:08:27.907Z,4.45
2023-03-14T21:11:32.391Z,4.47
2023-03-14T21:14:36.351Z,4.47
2023-03-14T21:17:41.908Z,4.38
2023-03-14T21:20:46.241Z,4.42
2023-03-14T21:23:54.194Z,4.41
2023-03-14T21:26:58.494Z,4.32
2023-03-14T21:30:03.332Z,4.34
2023-03-14T21:33:07.758Z,4.30
2023-03-14T21:36:11.995Z,4.23
2023-03-14T21:39:16.320Z,4.31
2023-03-14T21:42:21.478Z,4.34
2023-03-14T21:45:26.759Z,4.22
2023-03-14T21:48:31.052Z,4.23
2023-03-14T21:51:35.687Z,4.31
2023-03-14T21:54:43.278Z,4.25
2023-03-14T21:57:48.999Z,4.29
2023-03-14T22:00:54.939Z,4.22
2023-03-14T22:04:00.355Z,4.18
2023-03-14T22:07:07.148Z,4.17
2023-03-14T22:10:13.070Z,4.15
2023-03-14T22:13:18.098Z,4.13
2023-03-14T22:16:22.269Z,4.14
2023-03-14T22:19:27.543Z,4.15
2023-03-14T22:22:31.724Z,4.13
2023-03-14T22:25:35.625Z,4.18
2023-03-14T22:28:39.863Z,4.27
2023-03-14T22:31:43.776Z,4.31
2023-03-14T22:34:47.507Z,4.26
2023-03-14T22:37:51.664Z,4.36
2023-03-14T22:41:03.331Z,4.36
2023-03-14T22:44:07.142Z,4.38
2023-03-14T22:47:11.715Z,4.43
2023-03-14T22:50:16.228Z,4.37
2023-03-14T22:53:20.369Z,4.38
2023-03-14T22:56:24.514Z,4.28
2023-03-14T22:59:28.656Z,4.25
2023-03-14T23:02:32.855Z,4.24
2023-03-14T23:05:36.987Z,4.24
2023-03-14T23:08:41.695Z,4.28
2023-03-14T23:11:45.605Z,4.28
2023-03-14T23:14:49.736Z,4.27
2023-03-14T23:17:53.982Z,4.26
2023-03-14T23:21:13.820Z,4.31
2023-03-14T23:24:17.889Z,4.32
2023-03-14T23:27:21.948Z,4.26
2023-03-14T23:30:26.013Z,4.18
2023-03-14T23:33:29.993Z,4.22
2023-03-14T23:36:37.191Z,4.21
2023-03-14T23:39:44.551Z,4.22
2023-03-14T23:42:49.569Z,4.19
2023-03-14T23:45:55.984Z,4.22
2023-03-14T23:48:59.760Z,4.18
2023-03-14T23:52:03.810Z,4.17
2023-03-14T23:55:08.302Z,4.18
2023-03-14T23:58:12.268Z,4.08
